Time;durP1;ratioP1;P1;durP2;ratioP2;P2;SDS_P1;SDS_P2;PMS_P1;PMS_P2;Temp;Humidity;BMP_temperature;BMP_pressure;BME280_temperature;BME280_humidity;BME280_pressure;Samples;Min_cycle;Max_cycle;Signal;HPM_P1;HPM_P2
2021/03/11 00:01:50;;;;;;;20.58;11.50;;;3.10;99.90;;;;;;4822716;29;20058;-80
2021/03/11 00:04:21;;;;;;;21.75;11.75;;;3.10;99.90;;;;;;4823038;29;20046;-80
2021/03/11 00:06:53;;;;;;;19.65;12.65;;;3.00;99.90;;;;;;4823088;29;20107;-80
2021/03/11 00:09:19;;;;;;;21.02;13.23;;;2.90;99.90;;;;;;4807577;29;20570;-80
2021/03/11 00:11:45;;;;;;;22.38;13.30;;;2.80;99.90;;;;;;4822843;29;20050;-80
2021/03/11 00:14:11;;;;;;;14.85;8.30;;;2.70;99.90;;;;;;4822750;29;20121;-80
2021/03/11 00:16:38;;;;;;;14.73;9.82;;;2.70;99.90;;;;;;4822678;29;20074;-80
2021/03/11 00:19:09;;;;;;;14.32;8.95;;;2.70;99.90;;;;;;4822504;29;20165;-80
2021/03/11 00:21:40;;;;;;;17.20;11.20;;;2.80;99.90;;;;;;4828238;29;20083;-80
2021/03/11 00:24:11;;;;;;;16.65;10.02;;;2.80;99.90;;;;;;4824068;29;20141;-79
2021/03/11 00:26:38;;;;;;;15.38;9.38;;;2.90;99.90;;;;;;4822716;29;20084;-80
2021/03/11 00:29:04;;;;;;;16.90;10.60;;;2.80;99.90;;;;;;4822648;29;20073;-80
2021/03/11 00:31:35;;;;;;;12.88;8.82;;;2.80;99.90;;;;;;4822722;29;20078;-80
2021/03/11 00:34:01;;;;;;;12.27;7.25;;;2.90;99.90;;;;;;4807605;29;20145;-80
2021/03/11 00:36:33;;;;;;;12.48;7.55;;;3.00;99.90;;;;;;4822456;29;20110;-80
2021/03/11 00:38:59;;;;;;;11.10;7.00;;;3.10;99.90;;;;;;4821923;29;20486;-80
2021/03/11 00:41:31;;;;;;;10.15;6.85;;;3.30;99.90;;;;;;4822397;29;20126;-80
2021/03/11 00:43:57;;;;;;;11.40;7.57;;;3.40;99.90;;;;;;4822228;29;20133;-80
2021/03/11 00:46:28;;;;;;;11.05;6.13;;;3.50;99.90;;;;;;4822333;29;20058;-80
2021/03/11 00:48:55;;;;;;;13.32;7.55;;;3.70;99.90;;;;;;4822036;29;20449;-80
2021/03/11 00:51:21;;;;;;;15.15;9.13;;;3.80;99.90;;;;;;4822274;29;20053;-80
2021/03/11 00:53:54;;;;;;;17.92;10.13;;;3.80;99.90;;;;;;4822258;29;20050;-79
2021/03/11 00:56:26;;;;;;;18.95;10.50;;;3.70;99.90;;;;;;4807147;29;20517;-80
2021/03/11 00:58:57;;;;;;;19.48;11.63;;;3.50;99.90;;;;;;4822393;29;20053;-80
2021/03/11 01:01:30;;;;;;;21.98;11.43;;;3.40;99.90;;;;;;4822297;29;20054;-80
2021/03/11 01:04:05;;;;;;;18.77;11.45;;;3.20;99.90;;;;;;4807215;29;20122;-80
2021/03/11 01:06:32;;;;;;;18.60;11.93;;;3.10;99.90;;;;;;4806845;29;20042;-80
2021/03/11 01:08:58;;;;;;;21.25;11.95;;;3.00;99.90;;;;;;4806649;29;20054;-80
2021/03/11 01:11:25;;;;;;;17.73;11.70;;;2.90;99.90;;;;;;4821937;29;20057;-80
2021/03/11 01:13:56;;;;;;;22.65;12.82;;;2.80;99.90;;;;;;4822113;29;20343;-80
2021/03/11 01:16:23;;;;;;;19.17;11.82;;;2.70;99.90;;;;;;4821545;29;20111;-80
2021/03/11 01:18:54;;;;;;;20.48;11.70;;;2.70;99.90;;;;;;4821462;29;20415;-80
2021/03/11 01:21:21;;;;;;;20.55;12.60;;;2.70;99.90;;;;;;4822131;29;20126;-80
2021/03/11 01:23:47;;;;;;;18.48;12.05;;;2.70;99.90;;;;;;4821600;29;20077;-80
2021/03/11 01:26:18;;;;;;;18.35;11.05;;;2.60;99.90;;;;;;4821840;29;20081;-80
2021/03/11 01:28:45;;;;;;;22.73;11.77;;;2.60;99.90;;;;;;4821417;29;20153;-80
2021/03/11 01:31:16;;;;;;;16.08;10.82;;;2.60;99.90;;;;;;4821686;29;20107;-80
2021/03/11 01:33:47;;;;;;;18.48;10.57;;;2.70;99.90;;;;;;4821527;29;20050;-80
2021/03/11 01:36:13;;;;;;;11.77;7.25;;;2.80;99.90;;;;;;4821587;29;20047;-79
2021/03/11 01:38:45;;;;;;;9.13;6.13;;;2.90;99.90;;;;;;4821481;29;20061;-80
2021/03/11 01:41:16;;;;;;;10.65;7.13;;;3.00;99.90;;;;;;4821637;29;20506;-80
2021/03/11 01:43:48;;;;;;;10.18;6.00;;;3.40;99.90;;;;;;4821241;29;20149;-80
2021/03/11 01:46:15;;;;;;;8.98;5.85;;;3.60;99.90;;;;;;4806106;29;20050;-80
2021/03/11 01:48:46;;;;;;;8.52;5.55;;;3.70;99.90;;;;;;4821345;29;20074;-80
2021/03/11 01:51:19;;;;;;;10.02;6.07;;;3.80;99.90;;;;;;4820742;29;20042;-80
2021/03/11 01:53:51;;;;;;;9.05;5.75;;;3.90;99.90;;;;;;4806337;29;20473;-80
2021/03/11 01:56:23;;;;;;;8.68;5.47;;;4.00;99.90;;;;;;4806988;29;20050;-80
2021/03/11 01:58:54;;;;;;;9.63;5.85;;;4.10;99.90;;;;;;4805917;29;20414;-80
2021/03/11 02:01:21;;;;;;;9.63;5.65;;;4.20;99.90;;;;;;4821029;29;20072;-80
2021/03/11 02:03:52;;;;;;;9.02;4.85;;;4.20;99.90;;;;;;4820995;29;20057;-80
2021/03/11 02:06:23;;;;;;;8.60;4.70;;;4.30;99.90;;;;;;4821066;29;20074;-80
2021/03/11 02:08:54;;;;;;;8.02;4.85;;;4.40;99.90;;;;;;4805321;29;20057;-80
2021/03/11 02:11:25;;;;;;;5.63;4.30;;;4.60;99.90;;;;;;4821098;29;20072;-80
2021/03/11 02:14:27;;;;;;;8.93;5.15;;;4.80;99.90;;;;;;4820953;29;20058;-80
2021/03/11 02:17:01;;;;;;;8.50;5.63;;;4.90;99.90;;;;;;4795299;29;20055;-80
2021/03/11 02:20:03;;;;;;;7.00;4.57;;;5.10;99.50;;;;;;4805956;29;20058;-80
2021/03/11 02:22:53;;;;;;;9.27;5.53;;;5.20;99.10;;;;;;4806378;29;20053;-80
2021/03/11 02:25:31;;;;;;;8.55;6.00;;;5.20;99.10;;;;;;4805496;29;20085;-80
2021/03/11 02:28:15;;;;;;;7.78;4.97;;;5.20;98.40;;;;;;4805281;29;20050;-80
2021/03/11 02:30:47;;;;;;;11.82;5.55;;;5.30;95.90;;;;;;4806664;29;20061;-80
2021/03/11 02:33:14;;;;;;;8.70;4.75;;;5.50;94.60;;;;;;4805806;29;20499;-80
2021/03/11 02:35:46;;;;;;;7.63;4.75;;;5.60;93.80;;;;;;4805516;29;20086;-80
2021/03/11 02:38:18;;;;;;;9.15;5.38;;;5.60;92.40;;;;;;4820307;29;20122;-80
2021/03/11 02:40:51;;;;;;;8.32;5.50;;;5.70;91.60;;;;;;4805459;29;20046;-80
2021/03/11 02:43:22;;;;;;;7.70;4.90;;;5.80;90.80;;;;;;4805992;29;20110;-80
2021/03/11 02:45:55;;;;;;;9.20;5.65;;;5.90;89.40;;;;;;4805293;29;20525;-80
2021/03/11 02:48:28;;;;;;;9.90;5.78;;;6.00;89.60;;;;;;4805749;29;20126;-80
2021/03/11 02:50:57;;;;;;;10.27;6.05;;;6.00;88.30;;;;;;4805458;29;20149;-80
2021/03/11 02:53:28;;;;;;;10.02;5.80;;;6.00;87.50;;;;;;4806286;29;20046;-80
2021/03/11 02:56:00;;;;;;;8.43;5.88;;;6.10;85.90;;;;;;4820947;29;20421;-80
2021/03/11 02:58:33;;;;;;;9.15;6.30;;;6.20;84.90;;;;;;4805745;29;20391;-80
2021/03/11 03:01:00;;;;;;;10.13;5.93;;;6.20;84.60;;;;;;4805767;29;20054;-80
2021/03/11 03:03:33;;;;;;;12.95;6.20;;;6.20;85.00;;;;;;4809678;29;20073;-80
2021/03/11 03:06:05;;;;;;;12.88;6.82;;;6.20;84.70;;;;;;4809282;29;20047;-80
2021/03/11 03:08:37;;;;;;;9.80;6.28;;;6.20;83.50;;;;;;4809006;29;20078;-80
2021/03/11 03:11:09;;;;;;;11.85;7.03;;;6.20;85.20;;;;;;4809869;29;20042;-80
2021/03/11 03:13:42;;;;;;;12.20;6.68;;;6.20;83.50;;;;;;4794597;29;20103;-80
2021/03/11 03:16:15;;;;;;;14.25;7.40;;;6.30;83.70;;;;;;4811751;29;20529;-80
2021/03/11 03:18:43;;;;;;;10.23;6.32;;;6.30;82.90;;;;;;4813239;29;20091;-80
2021/03/11 03:21:11;;;;;;;11.68;6.47;;;6.20;84.80;;;;;;4809080;29;20087;-80
2021/03/11 03:23:43;;;;;;;12.87;6.50;;;6.20;83.60;;;;;;4809692;29;20121;-80
2021/03/11 03:26:14;;;;;;;10.43;6.10;;;6.20;84.00;;;;;;4794631;29;20057;-80
2021/03/11 03:28:46;;;;;;;11.05;6.50;;;6.20;84.00;;;;;;4823986;29;20084;-80
2021/03/11 03:31:12;;;;;;;11.45;5.55;;;6.20;85.30;;;;;;4808727;29;20141;-80
2021/03/11 03:33:43;;;;;;;11.85;6.78;;;6.20;84.40;;;;;;4824354;29;20082;-80
2021/03/11 03:36:14;;;;;;;11.05;6.10;;;6.20;82.80;;;;;;4824153;29;20055;-80
2021/03/11 03:38:46;;;;;;;10.13;5.88;;;6.20;83.80;;;;;;4823663;29;20081;-80
2021/03/11 03:41:17;;;;;;;10.10;5.78;;;6.30;81.20;;;;;;4823917;29;20054;-80
2021/03/11 03:43:45;;;;;;;10.13;6.63;;;6.30;82.30;;;;;;4823604;29;20050;-80
2021/03/11 03:46:24;;;;;;;10.18;6.30;;;6.30;81.20;;;;;;4808685;29;20039;-80
2021/03/11 03:49:01;;;;;;;10.75;6.47;;;6.30;82.80;;;;;;4809103;29;20518;-80
2021/03/11 03:51:36;;;;;;;9.30;5.85;;;6.30;81.60;;;;;;4808163;29;20046;-80
2021/03/11 03:54:09;;;;;;;8.82;5.43;;;6.20;81.60;;;;;;4823252;29;20054;-80
2021/03/11 03:56:48;;;;;;;8.65;5.45;;;6.20;80.10;;;;;;4808458;29;20522;-80
2021/03/11 03:59:26;;;;;;;8.75;5.15;;;6.30;80.10;;;;;;4808189;29;20526;-80
2021/03/11 04:01:58;;;;;;;10.95;5.38;;;6.30;77.50;;;;;;4808449;29;20046;-80
2021/03/11 04:04:29;;;;;;;8.30;5.22;;;6.40;76.60;;;;;;4807896;29;20083;-80
2021/03/11 04:07:03;;;;;;;7.90;4.72;;;6.40;76.20;;;;;;4808200;29;20049;-80
2021/03/11 04:09:30;;;;;;;9.50;5.25;;;6.40;75.80;;;;;;4807794;29;20582;-80
2021/03/11 04:12:04;;;;;;;8.63;4.78;;;6.40;74.90;;;;;;4808257;29;20148;-80
2021/03/11 04:14:37;;;;;;;7.85;4.22;;;6.40;75.50;;;;;;4808667;29;20058;-81
2021/03/11 04:17:09;;;;;;;6.85;3.80;;;6.50;73.20;;;;;;4808170;29;20149;-80
2021/03/11 04:19:42;;;;;;;9.35;4.70;;;6.50;72.30;;;;;;4807235;29;20050;-78
2021/03/11 04:22:13;;;;;;;7.95;4.78;;;6.60;71.60;;;;;;4807147;29;20054;-79
2021/03/11 04:24:45;;;;;;;7.97;4.43;;;6.60;71.50;;;;;;4807939;29;20057;-79
2021/03/11 04:27:12;;;;;;;7.50;5.07;;;6.70;68.70;;;;;;4806750;29;20050;-78
2021/03/11 04:29:44;;;;;;;7.88;5.35;;;6.70;67.90;;;;;;4821553;29;20459;-78
2021/03/11 04:32:15;;;;;;;10.00;4.85;;;6.80;67.10;;;;;;4821677;29;20050;-78
2021/03/11 04:34:47;;;;;;;7.20;4.32;;;6.90;66.80;;;;;;4807340;29;20073;-79
2021/03/11 04:37:18;;;;;;;8.35;4.70;;;6.90;68.00;;;;;;4821801;29;20050;-79
2021/03/11 04:39:50;;;;;;;9.52;5.05;;;6.90;67.50;;;;;;4821247;29;20050;-78
2021/03/11 04:42:21;;;;;;;10.32;4.78;;;6.90;66.90;;;;;;4821693;29;20046;-79
2021/03/11 04:44:53;;;;;;;6.78;5.13;;;6.90;67.30;;;;;;4806382;29;20066;-78
2021/03/11 04:47:24;;;;;;;7.43;4.43;;;6.90;66.60;;;;;;4821664;29;20042;-79
2021/03/11 04:49:56;;;;;;;8.68;5.20;;;6.90;66.70;;;;;;4821082;29;20050;-78
2021/03/11 04:52:29;;;;;;;7.15;4.72;;;6.90;66.90;;;;;;4806332;29;20141;-78
2021/03/11 04:54:56;;;;;;;8.75;5.00;;;6.90;67.20;;;;;;4821295;29;20051;-79
2021/03/11 04:57:28;;;;;;;9.23;4.95;;;6.90;66.90;;;;;;4807214;29;20503;-79
2021/03/11 05:00:00;;;;;;;9.43;5.43;;;7.00;66.20;;;;;;4821070;29;20130;-79
2021/03/11 05:02:34;;;;;;;8.77;5.10;;;7.10;65.20;;;;;;4821214;29;20145;-79
2021/03/11 05:05:09;;;;;;;10.27;5.40;;;7.20;65.40;;;;;;4806189;29;20061;-79
2021/03/11 05:07:40;;;;;;;9.38;5.93;;;7.20;65.00;;;;;;4806679;29;20043;-79
2021/03/11 05:10:12;;;;;;;10.45;6.10;;;7.20;66.40;;;;;;4821052;29;20038;-79
2021/03/11 05:12:44;;;;;;;12.10;5.68;;;7.20;66.00;;;;;;4821381;29;20042;-78
2021/03/11 05:15:15;;;;;;;11.18;6.30;;;7.20;64.90;;;;;;4791802;29;20082;-78
2021/03/11 05:17:47;;;;;;;13.10;6.53;;;7.30;64.50;;;;;;4805526;29;20212;-79
2021/03/11 05:20:19;;;;;;;11.75;7.50;;;7.40;65.20;;;;;;4820955;29;20574;-78
2021/03/11 05:22:50;;;;;;;10.18;6.00;;;7.40;65.50;;;;;;4822181;29;20136;-78
2021/03/11 05:25:22;;;;;;;8.95;6.03;;;7.50;67.80;;;;;;4821349;29;20107;-78
2021/03/11 05:27:53;;;;;;;13.23;6.50;;;7.40;70.90;;;;;;4820442;29;20526;-79
2021/03/11 05:30:24;;;;;;;11.43;7.68;;;7.30;77.10;;;;;;4820701;29;20130;-78
2021/03/11 05:32:56;;;;;;;13.73;7.90;;;7.10;82.00;;;;;;4805543;29;20056;-79
2021/03/11 05:35:27;;;;;;;14.40;8.30;;;6.90;87.40;;;;;;4820971;29;20054;-77
2021/03/11 05:38:00;;;;;;;14.77;7.65;;;6.80;91.60;;;;;;4820341;29;20574;-78
2021/03/11 05:40:33;;;;;;;11.90;7.38;;;6.70;94.60;;;;;;4805956;29;20062;-78
2021/03/11 05:43:06;;;;;;;13.30;6.97;;;6.60;95.00;;;;;;4820415;29;20129;-78
2021/03/11 05:45:37;;;;;;;11.10;6.63;;;6.70;94.60;;;;;;4805234;29;20042;-78
2021/03/11 05:48:12;;;;;;;9.45;6.38;;;6.70;94.00;;;;;;4820029;29;20123;-78
2021/03/11 05:50:44;;;;;;;10.50;6.32;;;6.80;93.80;;;;;;4805179;29;20042;-78
2021/03/11 05:53:15;;;;;;;12.07;5.97;;;6.90;91.60;;;;;;4805168;29;20519;-78
2021/03/11 05:55:48;;;;;;;12.57;7.50;;;7.00;92.70;;;;;;4820310;29;20050;-78
2021/03/11 05:58:20;;;;;;;13.57;6.85;;;7.10;91.80;;;;;;4804701;29;20104;-78
2021/03/11 06:00:52;;;;;;;11.88;5.93;;;7.20;90.70;;;;;;4820232;29;20057;-78
2021/03/11 06:03:26;;;;;;;12.32;6.25;;;7.40;90.60;;;;;;4804931;29;20461;-78
2021/03/11 06:06:02;;;;;;;10.77;6.68;;;7.40;91.50;;;;;;4819233;29;20042;-78
2021/03/11 06:08:30;;;;;;;10.52;6.28;;;7.50;90.30;;;;;;4793546;29;20127;-78
2021/03/11 06:10:59;;;;;;;10.38;5.85;;;7.60;89.20;;;;;;4803528;29;20054;-78
2021/03/11 06:13:31;;;;;;;11.13;6.10;;;7.80;89.40;;;;;;4803852;29;20414;-77
2021/03/11 06:16:14;;;;;;;10.57;6.25;;;7.80;90.30;;;;;;4802541;29;20612;-78
2021/03/11 06:18:49;;;;;;;9.07;5.47;;;7.80;89.50;;;;;;4802777;29;20136;-77
2021/03/11 06:21:20;;;;;;;12.30;6.20;;;7.90;88.40;;;;;;4789548;29;20144;-77
2021/03/11 06:23:51;;;;;;;11.88;5.80;;;7.90;89.80;;;;;;4803007;29;20046;-77
2021/03/11 06:26:22;;;;;;;9.82;6.20;;;8.00;90.30;;;;;;4806946;29;20042;-77
2021/03/11 06:28:54;;;;;;;11.30;6.47;;;7.90;90.90;;;;;;4780665;29;20046;-77
2021/03/11 06:31:31;;;;;;;11.40;6.32;;;7.90;91.70;;;;;;4801306;29;20054;-77
2021/03/11 06:34:17;;;;;;;8.93;6.03;;;7.80;93.40;;;;;;4803535;29;20058;-77
2021/03/11 06:36:49;;;;;;;9.90;6.43;;;7.70;98.40;;;;;;4809244;29;20629;-77
2021/03/11 06:39:26;;;;;;;10.82;6.63;;;7.60;99.90;;;;;;4798859;29;20045;-77
2021/03/11 06:41:58;;;;;;;11.52;6.75;;;7.40;99.90;;;;;;4806838;29;20053;-77
2021/03/11 06:44:42;;;;;;;13.40;6.43;;;7.30;99.90;;;;;;4823115;29;20052;-76
2021/03/11 06:47:15;;;;;;;12.73;6.43;;;7.10;99.90;;;;;;4808176;29;20056;-77
2021/03/11 06:49:59;;;;;;;12.63;6.60;;;6.90;99.90;;;;;;4806247;29;20153;-78
2021/03/11 06:52:31;;;;;;;10.98;7.05;;;6.70;99.90;;;;;;4804717;29;20057;-77
2021/03/11 06:55:04;;;;;;;14.27;7.20;;;6.60;99.90;;;;;;4817300;29;20187;-77
2021/03/11 06:57:39;;;;;;;11.05;6.82;;;6.60;99.90;;;;;;4804492;29;20144;-77
2021/03/11 07:00:25;;;;;;;9.15;6.97;;;6.50;99.90;;;;;;4804289;29;20399;-77
2021/03/11 07:02:58;;;;;;;12.15;7.60;;;6.50;99.90;;;;;;4819493;29;20506;-78
2021/03/11 07:05:41;;;;;;;13.32;7.50;;;6.50;99.90;;;;;;4803525;29;20047;-77
2021/03/11 07:08:16;;;;;;;11.57;6.63;;;6.50;99.90;;;;;;4817947;29;20085;-77
2021/03/11 07:10:48;;;;;;;10.13;6.82;;;6.50;99.90;;;;;;4823353;29;20042;-77
2021/03/11 07:13:20;;;;;;;11.23;6.20;;;6.50;99.90;;;;;;4816384;29;20047;-77
2021/03/11 07:15:55;;;;;;;9.23;5.75;;;6.50;99.90;;;;;;4821505;29;20050;-77
2021/03/11 07:18:26;;;;;;;12.15;5.72;;;6.70;99.90;;;;;;4786230;29;20078;-77
2021/03/11 07:20:57;;;;;;;10.70;6.57;;;6.80;99.90;;;;;;4784442;29;20499;-78
2021/03/11 07:23:29;;;;;;;9.75;6.28;;;6.80;99.90;;;;;;4787187;29;20069;-79
2021/03/11 07:26:08;;;;;;;8.07;5.32;;;6.90;99.90;;;;;;4793251;29;20164;-77
2021/03/11 07:28:40;;;;;;;11.57;7.20;;;6.90;99.90;;;;;;4789015;29;20068;-77
2021/03/11 07:31:06;;;;;;;12.32;6.50;;;7.00;99.90;;;;;;4807888;29;20086;-77
2021/03/11 07:33:38;;;;;;;9.05;6.25;;;7.00;99.90;;;;;;4804203;29;20055;-77
2021/03/11 07:36:10;;;;;;;11.95;6.57;;;7.00;99.90;;;;;;4785080;29;20062;-77
2021/03/11 10:00:14;;;;;;;6.47;3.20;;;10.70;98.10;;;;;;4823261;29;20146;-77
2021/03/11 10:02:50;;;;;;;6.10;3.78;;;10.80;97.90;;;;;;4821620;29;20058;-78
2021/03/11 10:05:21;;;;;;;5.32;3.22;;;10.90;97.80;;;;;;4799627;29;20442;-77
2021/03/11 10:07:55;;;;;;;5.38;3.50;;;11.00;96.60;;;;;;4820928;29;20038;-77
2021/03/11 10:10:26;;;;;;;5.72;2.60;;;11.00;95.60;;;;;;4825119;29;20070;-77
2021/03/11 10:12:52;;;;;;;6.50;3.05;;;11.10;95.50;;;;;;4824223;29;20145;-78
2021/03/11 10:15:24;;;;;;;6.28;2.95;;;11.20;95.80;;;;;;4805819;29;20121;-78
2021/03/11 10:18:15;;;;;;;4.38;3.15;;;11.30;96.10;;;;;;4789313;29;20057;-77
2021/03/11 10:20:46;;;;;;;4.90;2.72;;;11.40;94.40;;;;;;4805290;29;20046;-77
2021/03/11 10:23:17;;;;;;;5.68;2.88;;;11.50;94.40;;;;;;4835663;29;20514;-79
2021/03/11 10:25:44;;;;;;;6.45;3.97;;;11.60;94.10;;;;;;4838823;29;20052;-77
2021/03/11 10:28:26;;;;;;;4.75;2.60;;;11.80;92.80;;;;;;4808359;29;20046;-78
2021/03/11 10:30:57;;;;;;;3.78;2.75;;;11.90;93.80;;;;;;4822623;29;20405;-77
2021/03/11 10:33:29;;;;;;;4.97;2.50;;;12.00;93.00;;;;;;4821979;29;20072;-77
2021/03/11 10:36:17;;;;;;;5.82;2.67;;;12.10;91.20;;;;;;4823017;29;20437;-77
2021/03/11 10:39:12;;;;;;;8.27;3.13;;;12.30;92.10;;;;;;4820636;29;20047;-79
2021/03/11 10:42:05;;;;;;;4.45;2.72;;;12.50;91.20;;;;;;4809142;29;20415;-81
2021/03/11 10:44:39;;;;;;;3.78;2.20;;;12.70;91.00;;;;;;4824217;29;20074;-81
2021/03/11 10:48:15;;;;;;;3.60;2.50;;;12.80;91.50;;;;;;4781547;29;20054;-81
2021/03/11 10:51:30;;;;;;;4.35;2.30;;;13.00;90.60;;;;;;4809120;29;20141;-81
2021/03/11 10:54:47;;;;;;;3.67;2.38;;;13.10;90.10;;;;;;4811365;29;20414;-81
2021/03/11 11:01:10;;;;;;;4.40;2.22;;;13.20;90.50;;;;;;4810540;29;20084;-81
2021/03/11 11:03:38;;;;;;;4.72;3.08;;;13.30;88.60;;;;;;4796838;29;20118;-81
2021/03/11 11:06:07;;;;;;;3.70;2.38;;;13.30;88.40;;;;;;4812198;29;20511;-81
2021/03/11 11:09:23;;;;;;;3.95;2.85;;;13.40;86.80;;;;;;4817475;29;20053;-81
2021/03/11 11:20:13;;;;;;;4.82;2.80;;;13.40;85.70;;;;;;4823781;29;20054;-81
2021/03/11 11:22:40;;;;;;;5.72;2.70;;;13.60;85.60;;;;;;4804505;29;20106;-80
2021/03/11 11:25:08;;;;;;;3.40;2.47;;;13.50;83.80;;;;;;4813295;29;20050;-80
2021/03/11 11:27:35;;;;;;;9.05;2.85;;;13.50;84.30;;;;;;4797464;29;20076;-80
2021/03/11 11:30:03;;;;;;;6.82;2.88;;;13.50;85.70;;;;;;4793908;29;20114;-80
2021/03/11 11:32:30;;;;;;;7.13;2.50;;;13.50;84.10;;;;;;4812028;29;20108;-78
2021/03/11 11:35:01;;;;;;;3.50;2.38;;;13.50;84.70;;;;;;4808608;29;20061;-80
2021/03/11 11:37:27;;;;;;;3.38;2.05;;;13.50;85.60;;;;;;4794546;29;20065;-80
2021/03/11 11:39:59;;;;;;;3.50;2.10;;;13.60;84.10;;;;;;4794832;29;20058;-79
2021/03/11 11:42:30;;;;;;;6.80;2.72;;;13.60;86.30;;;;;;4793871;29;20165;-80
2021/03/11 11:44:57;;;;;;;5.40;2.28;;;13.70;84.10;;;;;;4817981;29;20141;-80
2021/03/11 11:47:29;;;;;;;3.40;2.00;;;13.80;84.50;;;;;;4795086;29;20133;-80
2021/03/11 11:50:00;;;;;;;3.42;2.38;;;13.90;86.00;;;;;;4791013;29;20049;-79
2021/03/11 11:52:31;;;;;;;8.18;2.47;;;14.00;82.60;;;;;;4805599;29;20069;-79
2021/03/11 11:54:57;;;;;;;4.57;2.38;;;14.10;82.70;;;;;;4792309;29;20141;-80
2021/03/11 11:57:24;;;;;;;3.88;2.70;;;14.00;81.20;;;;;;4825956;29;20074;-79
2021/03/11 11:59:50;;;;;;;2.95;2.30;;;13.90;81.90;;;;;;4794165;29;20086;-80
2021/03/11 12:02:21;;;;;;;3.88;2.38;;;14.00;82.30;;;;;;4825803;29;20050;-79
2021/03/11 12:04:54;;;;;;;3.03;2.17;;;14.00;84.00;;;;;;4809414;29;20054;-80
2021/03/11 12:07:27;;;;;;;4.10;2.22;;;14.20;82.50;;;;;;4808371;29;20129;-80
2021/03/11 12:09:59;;;;;;;2.45;1.92;;;14.30;84.50;;;;;;4795488;29;20443;-80
2021/03/11 12:12:26;;;;;;;4.30;2.30;;;14.30;81.60;;;;;;4793760;29;20484;-79
2021/03/11 12:14:52;;;;;;;2.55;2.00;;;14.30;81.40;;;;;;4813036;29;20046;-80
2021/03/11 12:17:23;;;;;;;3.65;2.15;;;14.20;81.50;;;;;;4801200;29;20046;-79
2021/03/11 12:19:55;;;;;;;2.20;1.70;;;14.10;83.90;;;;;;4808687;29;20357;-79
2021/03/11 12:22:26;;;;;;;3.70;1.95;;;14.10;83.70;;;;;;4796324;29;20050;-79
2021/03/11 12:24:53;;;;;;;3.00;2.00;;;14.10;85.30;;;;;;4808763;29;20046;-81
2021/03/11 12:27:24;;;;;;;2.78;1.52;;;14.20;84.70;;;;;;4792204;29;20053;-79
2021/03/11 12:29:52;;;;;;;2.63;1.48;;;14.20;85.00;;;;;;4792414;29;20426;-79
2021/03/11 12:32:23;;;;;;;4.30;1.60;;;14.20;85.30;;;;;;4795010;29;20050;-80
2021/03/11 12:34:50;;;;;;;2.83;1.45;;;14.20;85.40;;;;;;4809172;29;20062;-80
2021/03/11 12:37:17;;;;;;;2.20;1.50;;;14.10;86.40;;;;;;4811390;29;20095;-80
2021/03/11 12:39:43;;;;;;;4.78;1.65;;;14.10;87.50;;;;;;4807055;29;20144;-79
2021/03/11 12:42:10;;;;;;;3.20;1.38;;;14.20;87.90;;;;;;4806487;29;20054;-79
2021/03/11 12:44:41;;;;;;;2.65;1.40;;;14.10;88.90;;;;;;4802939;29;20043;-79
2021/03/11 12:47:08;;;;;;;1.95;1.20;;;14.10;88.00;;;;;;4803752;29;20055;-80
2021/03/11 12:49:37;;;;;;;2.38;1.48;;;14.00;89.10;;;;;;4799852;29;20502;-79
2021/03/11 12:52:04;;;;;;;2.45;1.10;;;14.00;90.00;;;;;;4802294;29;20115;-79
2021/03/11 12:54:30;;;;;;;4.00;1.92;;;14.00;90.60;;;;;;4806476;29;20055;-78
2021/03/11 12:57:02;;;;;;;3.05;1.13;;;14.00;90.50;;;;;;4792786;29;20126;-79
2021/03/11 12:59:28;;;;;;;2.65;1.20;;;14.00;90.80;;;;;;4806825;29;20058;-79
2021/03/11 13:01:59;;;;;;;4.30;0.98;;;14.00;91.40;;;;;;4792736;29;20050;-79
2021/03/11 13:04:25;;;;;;;2.78;1.45;;;14.00;91.20;;;;;;4806748;29;20085;-79
2021/03/11 13:06:57;;;;;;;1.90;1.10;;;14.00;92.00;;;;;;4792790;29;20196;-79
2021/03/11 13:09:31;;;;;;;0.95;0.80;;;13.90;92.70;;;;;;4808074;29;20412;-80
2021/03/11 13:12:04;;;;;;;2.10;0.90;;;13.80;93.00;;;;;;4793410;29;20051;-80
2021/03/11 13:14:35;;;;;;;1.67;0.93;;;13.80;93.20;;;;;;4793495;29;20054;-79
2021/03/11 13:17:03;;;;;;;2.15;1.05;;;13.80;93.10;;;;;;4792596;29;20510;-79
2021/03/11 13:19:34;;;;;;;2.00;0.85;;;13.80;93.10;;;;;;4809849;29;20078;-79
2021/03/11 13:22:00;;;;;;;1.55;0.90;;;13.80;93.60;;;;;;4792586;29;20141;-79
2021/03/11 13:24:27;;;;;;;2.70;0.88;;;13.80;93.40;;;;;;4792551;29;20077;-80
2021/03/11 13:26:58;;;;;;;1.30;0.80;;;13.80;93.30;;;;;;4793538;29;20123;-79
2021/03/11 13:29:29;;;;;;;1.17;0.85;;;13.90;93.10;;;;;;4793239;29;20499;-79
2021/03/11 13:32:02;;;;;;;1.63;0.70;;;13.90;93.00;;;;;;4793511;29;20141;-80
2021/03/11 13:34:28;;;;;;;3.45;0.80;;;13.90;93.60;;;;;;4807639;29;20046;-79
2021/03/11 13:37:00;;;;;;;0.90;0.70;;;13.90;93.00;;;;;;4793178;29;20054;-79
2021/03/11 13:39:26;;;;;;;1.50;0.73;;;13.90;93.20;;;;;;4805724;29;20111;-79
2021/03/11 13:41:58;;;;;;;1.13;0.75;;;13.90;92.50;;;;;;4807360;29;20137;-79
2021/03/11 13:44:29;;;;;;;2.03;0.75;;;13.90;92.60;;;;;;4792249;29;20046;-79
2021/03/11 13:47:01;;;;;;;1.42;0.90;;;14.00;93.00;;;;;;4805680;29;20050;-79
2021/03/11 13:49:32;;;;;;;1.17;0.95;;;14.00;93.40;;;;;;4807140;29;20145;-80
2021/03/11 13:52:04;;;;;;;1.17;0.80;;;14.00;93.10;;;;;;4808222;29;20103;-79
2021/03/11 13:54:30;;;;;;;1.55;0.80;;;14.00;93.80;;;;;;4807641;29;20149;-79
2021/03/11 13:57:04;;;;;;;2.03;1.00;;;14.00;92.40;;;;;;4807439;29;20137;-80
2021/03/11 13:59:42;;;;;;;4.13;0.75;;;14.00;93.30;;;;;;4813643;29;20410;-79
2021/03/11 14:02:23;;;;;;;1.05;0.77;;;14.00;93.20;;;;;;4806089;29;20062;-79
2021/03/11 14:05:16;;;;;;;1.00;0.70;;;14.00;93.60;;;;;;4808605;29;20058;-81
2021/03/11 14:08:04;;;;;;;1.10;0.60;;;14.00;93.20;;;;;;4821085;29;20119;-78
2021/03/11 14:10:35;;;;;;;1.77;0.70;;;13.90;93.90;;;;;;4790937;29;20051;-79
2021/03/11 14:13:07;;;;;;;1.60;0.90;;;14.00;93.50;;;;;;4791409;29;20136;-79
2021/03/11 14:15:38;;;;;;;1.05;0.70;;;14.00;93.70;;;;;;4805569;29;20058;-79
2021/03/11 14:18:09;;;;;;;3.33;0.77;;;14.10;94.00;;;;;;4790645;29;20050;-80
2021/03/11 14:20:41;;;;;;;1.80;1.02;;;14.10;94.50;;;;;;4806166;29;20057;-79
2021/03/11 14:23:12;;;;;;;1.13;0.70;;;14.10;93.60;;;;;;4805605;29;20676;-79
2021/03/11 14:25:43;;;;;;;3.35;0.70;;;14.10;93.80;;;;;;4791513;29;20060;-79
2021/03/11 14:28:09;;;;;;;1.15;0.80;;;14.10;94.10;;;;;;4798401;29;20134;-80
2021/03/11 14:30:37;;;;;;;1.90;0.85;;;14.10;94.50;;;;;;4788080;29;20523;-79
2021/03/11 14:33:03;;;;;;;2.30;0.93;;;14.20;94.20;;;;;;4788385;29;20141;-79
2021/03/11 14:35:29;;;;;;;1.33;0.90;;;14.20;94.10;;;;;;4819052;29;20498;-79
2021/03/11 14:38:01;;;;;;;1.88;0.70;;;14.10;94.30;;;;;;4809718;29;20409;-80
2021/03/11 14:40:32;;;;;;;4.05;0.90;;;14.10;94.20;;;;;;4824178;29;20161;-79
2021/03/11 14:43:03;;;;;;;2.53;0.90;;;14.20;94.10;;;;;;4823892;29;20148;-79
2021/03/11 14:45:35;;;;;;;1.27;0.70;;;14.20;94.30;;;;;;4824323;29;20045;-80
2021/03/11 14:48:07;;;;;;;2.20;0.93;;;14.20;94.10;;;;;;4823683;29;20054;-79
2021/03/11 14:50:39;;;;;;;1.13;0.73;;;14.20;94.10;;;;;;4824191;29;20046;-79
2021/03/11 14:53:11;;;;;;;1.48;0.80;;;14.20;95.10;;;;;;4809278;29;20073;-80
2021/03/11 14:55:37;;;;;;;1.13;0.73;;;14.20;95.20;;;;;;4823918;29;20068;-78
2021/03/11 14:58:03;;;;;;;1.38;0.90;;;14.20;95.80;;;;;;4808390;29;20475;-79
2021/03/11 15:00:35;;;;;;;1.98;0.70;;;14.10;96.40;;;;;;4809125;29;20406;-79
2021/03/11 15:03:06;;;;;;;1.38;0.70;;;14.10;97.20;;;;;;4823663;29;20089;-79
2021/03/11 15:05:38;;;;;;;2.78;0.68;;;14.00;96.60;;;;;;4809061;29;20045;-80
2021/03/11 15:08:04;;;;;;;2.35;0.88;;;14.00;96.70;;;;;;4839421;29;20046;-79
2021/03/11 15:10:36;;;;;;;1.55;0.82;;;14.00;96.90;;;;;;4809111;29;20052;-79
2021/03/11 15:13:07;;;;;;;2.17;0.85;;;13.90;97.00;;;;;;4824670;29;20038;-79
2021/03/11 15:15:38;;;;;;;3.25;0.80;;;13.90;97.70;;;;;;4809003;29;20150;-79
2021/03/11 15:18:10;;;;;;;2.65;1.00;;;13.90;97.30;;;;;;4822808;29;20046;-78
2021/03/11 15:20:42;;;;;;;1.33;0.90;;;13.90;96.90;;;;;;4808993;29;20064;-78
2021/03/11 15:23:13;;;;;;;4.57;1.10;;;13.90;97.60;;;;;;4809186;29;20054;-79
2021/03/11 15:25:45;;;;;;;3.97;1.08;;;13.90;97.90;;;;;;4808906;29;20050;-78
2021/03/11 15:28:16;;;;;;;3.15;1.33;;;13.80;97.60;;;;;;4808858;29;20038;-79
2021/03/11 15:30:42;;;;;;;3.58;0.60;;;13.80;98.30;;;;;;4823235;29;20128;-79
2021/03/11 15:33:09;;;;;;;3.75;0.70;;;13.80;98.50;;;;;;4808598;29;20584;-79
2021/03/11 15:35:41;;;;;;;1.65;0.68;;;13.70;99.20;;;;;;4810460;29;20133;-80
2021/03/11 15:38:14;;;;;;;1.00;0.80;;;13.70;99.10;;;;;;4825456;29;20417;-80
2021/03/11 15:40:46;;;;;;;1.52;0.65;;;13.70;98.90;;;;;;4810636;29;20049;-80
2021/03/11 15:43:17;;;;;;;2.60;0.68;;;13.70;98.90;;;;;;4825085;29;20062;-78
2021/03/11 15:45:48;;;;;;;0.88;0.68;;;13.70;99.30;;;;;;4823748;29;20145;-80
2021/03/11 15:48:23;;;;;;;1.15;0.68;;;13.60;99.60;;;;;;4810759;29;20046;-80